Information for Pinto Martins – Fortaleza International Airport

back to airport list

ICAO Code:SBFZ Country:Brazil
Airport Name:Pinto Martins – Fortaleza International Airport Is Hub:No
Latitude:-3.77583 Longitude:-38.5322
Scheduled Departures:0 Scheduled Arrivals:0
Total Past Departures:1 Total Past Arrivals:1
Pilots Based:0 Current Pilot Location:0
SBFZ 221800Z 08016KT 9999 FEW030 30/20 Q1010


Nearby Destination Airports

ICAO Airport Country GC Distance View
SBFN Fernando de Noronha Airport Brazil 366 NM View Airport Page


+ Show Timetable

Scheduled Departures from SBFZ

Flight To Destination Days Dep. Time Aircraft Info
No Scheduled Departures!


Scheduled Arrivals to SBFZ

Flight From Origin Days Arr. Time Aircraft Info
No Scheduled Arrivals!
+ Show Recent Flight Info

Recent Departures from SBFZ

Flight To Destination Pilot Flighttime Landingrate Aircraft View
ASXC49 SBFN Fernando de Noronha Airport Damian Belica 01.23.35 -155 ft/m B734 View Report


Recent Arrivals to SBFZ

Flight From Origin Pilot Flighttime Landingrate Aircraft View
ASXC47 SOCA Cayenne – Félix Eboué Airport Damian Belica 02.58.13 -228 ft/m B734 View Report
+ Show Pilot Information

Pilots based at SBFZ

Avatar Pilot ID Name Location Rank View Profile
No Pilots are based at this airport!


Pilots currently at SBFZ

Avatar Pilot ID Name Location Rank On Location since View Profile
Currently there are no pilots at this airport!
- Hide Map